createdAt,value
2022-11-20T00:00:16.107Z,5.60
2022-11-20T00:02:44.816Z,5.97
2022-11-20T00:05:14.616Z,4.93
2022-11-20T00:07:43.204Z,4.60
2022-11-20T00:10:11.604Z,4.53
2022-11-20T00:12:42.904Z,4.13
2022-11-20T00:15:12.258Z,4.90
2022-11-20T00:17:40.993Z,5.27
2022-11-20T00:20:11.187Z,4.93
2022-11-20T00:22:40.717Z,5.60
2022-11-20T00:25:09.602Z,4.57
2022-11-20T00:27:38.159Z,4.57
2022-11-20T00:30:14.635Z,4.23
2022-11-20T00:32:43.924Z,4.17
2022-11-20T00:35:12.203Z,3.83
2022-11-20T00:37:41.956Z,3.97
2022-11-20T00:40:11.548Z,4.67
2022-11-20T00:42:40.361Z,4.50
2022-11-20T00:45:09.220Z,4.30
2022-11-20T00:47:37.818Z,4.60
2022-11-20T00:50:06.913Z,5.20
2022-11-20T00:52:35.065Z,4.10
2022-11-20T00:55:06.773Z,4.30
2022-11-20T00:57:34.988Z,4.67
2022-11-20T01:00:03.276Z,4.20
2022-11-20T01:02:31.898Z,4.87
2022-11-20T01:05:00.299Z,4.43
2022-11-20T01:07:28.760Z,4.17
2022-11-20T01:09:57.036Z,4.53
2022-11-20T01:12:27.241Z,3.20
2022-11-20T01:14:55.442Z,4.63
2022-11-20T01:17:24.328Z,4.70
2022-11-20T01:19:52.904Z,4.93
2022-11-20T01:22:21.873Z,6.13
2022-11-20T01:24:50.159Z,4.87
2022-11-20T01:27:18.305Z,5.30
2022-11-20T01:29:48.027Z,5.23
2022-11-20T01:32:16.758Z,6.80
2022-11-20T01:34:45.011Z,6.33
2022-11-20T01:37:13.287Z,5.60
2022-11-20T01:39:42.408Z,4.83
2022-11-20T01:42:28.001Z,5.17
2022-11-20T01:45:00.771Z,5.00
2022-11-20T01:47:37.530Z,5.27
2022-11-20T01:50:12.846Z,5.13
2022-11-20T01:52:47.782Z,5.77
2022-11-20T01:55:21.779Z,6.10
2022-11-20T01:57:51.509Z,4.60
2022-11-20T02:00:22.968Z,5.50
2022-11-20T02:02:56.906Z,5.80
2022-11-20T02:05:30.675Z,6.57
2022-11-20T02:08:00.168Z,6.30
2022-11-20T02:10:30.216Z,5.93
2022-11-20T02:13:16.739Z,5.93
2022-11-20T02:15:47.050Z,5.73
2022-11-20T02:18:18.104Z,6.13
2022-11-20T02:20:48.699Z,6.90
2022-11-20T02:23:23.155Z,6.37
2022-11-20T02:25:54.862Z,5.27
2022-11-20T02:28:24.036Z,5.87
2022-11-20T02:30:53.204Z,6.50
2022-11-20T02:33:23.941Z,6.27
2022-11-20T02:35:53.080Z,6.53
2022-11-20T02:38:26.218Z,6.10
2022-11-20T02:41:06.064Z,5.60
2022-11-20T02:43:47.407Z,6.60
2022-11-20T02:46:16.628Z,5.77
2022-11-20T02:48:44.827Z,6.37
2022-11-20T02:51:13.833Z,5.60
2022-11-20T02:53:42.143Z,6.10
2022-11-20T02:56:11.788Z,5.67
2022-11-20T02:58:40.032Z,6.00
2022-11-20T03:01:12.354Z,6.83
2022-11-20T03:03:40.942Z,6.50
2022-11-20T03:06:09.796Z,6.60
2022-11-20T03:08:38.912Z,6.00
2022-11-20T03:11:09.163Z,6.10
2022-11-20T03:13:53.658Z,6.43
2022-11-20T03:16:24.608Z,6.47
2022-11-20T03:18:54.899Z,6.70
2022-11-20T03:21:24.440Z,6.93
2022-11-20T03:23:52.796Z,6.93
2022-11-20T03:26:22.742Z,6.43
2022-11-20T03:28:53.590Z,6.50
2022-11-20T03:31:32.995Z,9.17
2022-11-20T03:34:01.977Z,9.13
2022-11-20T03:36:30.826Z,7.00
2022-11-20T03:39:13.547Z,5.27
2022-11-20T03:41:44.416Z,5.33
2022-11-20T03:44:14.560Z,5.43
2022-11-20T03:46:42.953Z,4.93
2022-11-20T03:49:11.163Z,5.73
2022-11-20T03:51:39.580Z,6.00
2022-11-20T03:54:11.154Z,6.77
2022-11-20T03:56:41.233Z,6.27
2022-11-20T03:59:12.202Z,6.30
2022-11-20T04:01:45.460Z,7.17
2022-11-20T04:04:20.772Z,7.67
2022-11-20T04:06:49.092Z,6.23
2022-11-20T04:09:17.555Z,6.97
2022-11-20T04:11:45.803Z,6.83
2022-11-20T04:14:17.319Z,6.70
2022-11-20T04:16:46.963Z,6.60
2022-11-20T04:19:16.935Z,6.63
2022-11-20T04:21:45.899Z,6.50
2022-11-20T04:24:14.277Z,6.00
2022-11-20T04:26:42.725Z,6.13
2022-11-20T04:29:13.772Z,5.03
2022-11-20T04:31:42.325Z,5.60
2022-11-20T04:34:14.495Z,6.03
2022-11-20T04:36:43.601Z,6.50
2022-11-20T04:39:16.349Z,6.97
2022-11-20T04:41:44.803Z,8.33
2022-11-20T04:44:13.690Z,10.07
2022-11-20T04:46:43.977Z,13.23
2022-11-20T04:49:14.850Z,9.03
2022-11-20T04:51:44.264Z,9.63
2022-11-20T04:54:13.911Z,8.17
2022-11-20T04:56:42.099Z,7.20
2022-11-20T04:59:10.408Z,6.70
2022-11-20T05:01:38.837Z,7.20
2022-11-20T05:04:07.303Z,6.73
2022-11-20T05:06:36.934Z,7.77
2022-11-20T05:09:06.159Z,7.93
2022-11-20T05:11:34.825Z,7.77
2022-11-20T05:14:03.375Z,7.33
2022-11-20T05:16:32.017Z,8.20
2022-11-20T05:19:00.885Z,7.90
2022-11-20T05:21:29.300Z,8.60
2022-11-20T05:23:59.533Z,7.90
2022-11-20T05:26:28.114Z,7.17
2022-11-20T05:28:56.733Z,7.87
2022-11-20T05:31:28.598Z,9.13
2022-11-20T05:33:58.252Z,8.47
2022-11-20T05:36:27.731Z,8.77
2022-11-20T05:39:01.241Z,9.10
2022-11-20T05:41:32.269Z,8.70
2022-11-20T05:44:00.750Z,8.47
2022-11-20T05:46:29.823Z,9.80
2022-11-20T05:48:58.980Z,9.90
2022-11-20T05:51:28.241Z,10.20
2022-11-20T05:53:58.025Z,10.87
2022-11-20T05:56:26.443Z,10.93
2022-11-20T05:58:56.252Z,10.63
2022-11-20T06:01:26.815Z,10.90
2022-11-20T06:03:57.004Z,11.10
2022-11-20T06:06:26.222Z,11.40
2022-11-20T06:08:55.484Z,10.00
2022-11-20T06:11:23.879Z,10.10
2022-11-20T06:13:53.831Z,10.13
2022-11-20T06:16:23.824Z,10.60
2022-11-20T06:18:52.203Z,10.40
2022-11-20T06:21:22.964Z,9.17
2022-11-20T06:23:54.015Z,10.97
2022-11-20T06:26:24.436Z,9.27
2022-11-20T06:28:53.622Z,9.47
2022-11-20T06:31:25.065Z,9.27
2022-11-20T06:33:54.146Z,10.40
2022-11-20T06:36:24.326Z,10.30
2022-11-20T06:38:52.614Z,10.33
2022-11-20T06:41:22.695Z,9.87
2022-11-20T06:43:51.742Z,8.97
2022-11-20T06:46:21.585Z,9.77
2022-11-20T06:48:52.327Z,9.40
2022-11-20T06:51:20.695Z,8.47
2022-11-20T06:53:49.493Z,9.53
2022-11-20T06:56:17.733Z,8.87
2022-11-20T06:58:45.932Z,9.40
2022-11-20T07:01:15.893Z,8.47
2022-11-20T07:03:44.578Z,8.60
2022-11-20T07:06:14.209Z,8.23
2022-11-20T07:08:42.743Z,8.43
2022-11-20T07:11:13.996Z,9.03
2022-11-20T07:13:42.327Z,8.63
2022-11-20T07:16:11.251Z,8.33
2022-11-20T07:18:39.432Z,8.80
2022-11-20T07:21:10.003Z,7.20
2022-11-20T07:23:40.743Z,9.27
2022-11-20T07:26:10.622Z,7.17
2022-11-20T07:28:39.736Z,8.00
2022-11-20T07:31:08.675Z,8.27
2022-11-20T07:33:37.913Z,8.60
2022-11-20T07:36:06.876Z,8.50
2022-11-20T07:38:36.326Z,8.67
2022-11-20T07:41:06.874Z,8.77
2022-11-20T07:43:40.860Z,8.70
2022-11-20T07:46:09.647Z,7.60
2022-11-20T07:48:38.163Z,8.17
2022-11-20T07:51:08.018Z,7.30
2022-11-20T07:53:37.261Z,7.63
2022-11-20T07:56:07.852Z,8.43
2022-11-20T07:58:35.995Z,7.77
2022-11-20T08:01:09.688Z,8.00
2022-11-20T08:03:39.706Z,7.50
2022-11-20T08:06:10.235Z,8.17
2022-11-20T08:08:43.083Z,8.53
2022-11-20T08:11:30.229Z,7.40
2022-11-20T08:14:13.700Z,7.53
2022-11-20T08:16:43.513Z,8.03
2022-11-20T08:19:11.972Z,11.30
2022-11-20T08:21:40.470Z,7.97
2022-11-20T08:24:12.610Z,8.23
2022-11-20T08:26:42.973Z,8.07
2022-11-20T08:29:11.218Z,8.37
2022-11-20T08:31:39.352Z,6.90
2022-11-20T08:34:09.559Z,8.10
2022-11-20T08:36:41.128Z,8.50
2022-11-20T08:39:09.413Z,8.57
2022-11-20T08:41:38.429Z,7.33
2022-11-20T08:44:14.946Z,8.73
2022-11-20T08:46:44.884Z,8.10
2022-11-20T08:49:14.916Z,8.13
2022-11-20T08:51:43.882Z,8.33
2022-11-20T08:54:12.107Z,8.27
2022-11-20T08:56:40.226Z,7.53
2022-11-20T08:59:43.803Z,7.93
2022-11-20T09:01:59.918Z,9.20
2022-11-20T09:04:28.709Z,7.67
2022-11-20T09:06:57.480Z,8.33
2022-11-20T09:09:26.026Z,8.20
2022-11-20T09:11:54.408Z,8.50
2022-11-20T09:14:25.747Z,7.17
2022-11-20T09:16:54.641Z,8.80
2022-11-20T09:19:41.099Z,9.10
2022-11-20T09:22:09.978Z,9.30
2022-11-20T09:24:38.432Z,7.83
2022-11-20T09:27:07.325Z,9.03
2022-11-20T09:29:36.258Z,8.53
2022-11-20T09:32:04.611Z,9.73
2022-11-20T09:34:34.206Z,8.17
2022-11-20T09:37:06.253Z,9.17
2022-11-20T09:39:39.754Z,7.93
2022-11-20T09:42:31.331Z,8.83
2022-11-20T09:45:25.248Z,9.13
2022-11-20T09:48:19.321Z,9.03
2022-11-20T09:50:55.954Z,9.30
2022-11-20T09:53:33.563Z,9.10
2022-11-20T09:56:04.697Z,9.17
2022-11-20T09:58:37.556Z,9.93
2022-11-20T10:01:14.220Z,9.40
2022-11-20T10:03:57.925Z,9.67
2022-11-20T10:06:32.771Z,8.80
2022-11-20T10:09:10.429Z,9.67
2022-11-20T10:11:48.790Z,9.67
2022-11-20T10:14:31.518Z,8.43
2022-11-20T10:17:07.283Z,8.57
2022-11-20T10:19:49.815Z,9.37
2022-11-20T10:22:37.744Z,9.73
2022-11-20T10:25:13.842Z,9.70
2022-11-20T10:28:07.935Z,8.27
2022-11-20T10:30:40.963Z,8.73
2022-11-20T10:33:18.185Z,8.23
2022-11-20T10:35:50.914Z,8.43
2022-11-20T10:38:25.612Z,8.10
2022-11-20T10:41:20.649Z,8.90
2022-11-20T10:43:52.913Z,8.20
2022-11-20T10:46:24.536Z,8.40
2022-11-20T10:48:53.606Z,7.60
2022-11-20T10:51:33.314Z,8.07
2022-11-20T10:54:14.649Z,8.23
2022-11-20T10:56:50.331Z,9.30
2022-11-20T10:59:44.305Z,8.67
2022-11-20T11:02:21.832Z,9.43
2022-11-20T11:04:52.238Z,9.43
2022-11-20T11:07:24.720Z,8.77
2022-11-20T11:09:56.668Z,8.20
2022-11-20T11:12:27.401Z,8.23
2022-11-20T11:14:57.425Z,8.83
2022-11-20T11:17:29.352Z,8.40
2022-11-20T11:20:18.314Z,8.70
2022-11-20T11:22:48.717Z,7.63
2022-11-20T11:25:28.214Z,7.33
2022-11-20T11:28:04.320Z,8.27
2022-11-20T11:30:44.227Z,8.07
2022-11-20T11:33:21.048Z,9.53
2022-11-20T11:35:53.401Z,8.10
2022-11-20T11:38:30.797Z,8.47
2022-11-20T11:41:01.943Z,9.10
2022-11-20T11:43:50.148Z,8.95
2022-11-20T11:46:33.044Z,8.20
2022-11-20T11:49:04.222Z,7.87
2022-11-20T11:51:41.660Z,8.03
2022-11-20T11:54:19.942Z,8.27
2022-11-20T11:56:50.389Z,8.63
2022-11-20T11:59:27.323Z,7.47
2022-11-20T12:02:00.456Z,7.63
2022-11-20T12:04:44.310Z,7.22
2022-11-20T12:07:44.883Z,7.65
2022-11-20T12:10:08.181Z,7.78
2022-11-20T12:12:43.066Z,7.35
2022-11-20T12:15:14.146Z,6.93
2022-11-20T12:17:42.426Z,6.93
2022-11-20T12:20:16.314Z,7.03
2022-11-20T12:22:53.783Z,6.78
2022-11-20T12:25:26.200Z,7.03
2022-11-20T12:28:24.789Z,7.07
2022-11-20T12:31:10.359Z,5.50
2022-11-20T12:33:55.939Z,5.28
2022-11-20T12:36:35.296Z,5.30
2022-11-20T12:39:24.379Z,5.45
2022-11-20T12:42:42.636Z,6.18
2022-11-20T12:45:37.868Z,4.85
2022-11-20T12:48:35.967Z,4.82
2022-11-20T12:51:26.007Z,5.85
2022-11-20T12:54:09.063Z,5.60
2022-11-20T12:56:45.642Z,5.85
2022-11-20T12:59:34.532Z,5.95
2022-11-20T13:02:20.777Z,5.45
2022-11-20T13:05:03.963Z,4.80
2022-11-20T13:07:34.303Z,5.45
2022-11-20T13:10:04.882Z,5.03
2022-11-20T13:12:39.128Z,5.45
2022-11-20T13:15:19.871Z,4.85
2022-11-20T13:17:56.506Z,5.60
2022-11-20T13:20:24.807Z,4.65
2022-11-20T13:22:55.659Z,5.00
2022-11-20T13:25:28.645Z,5.30
2022-11-20T13:27:59.159Z,5.00
2022-11-20T13:30:29.071Z,4.53
2022-11-20T13:33:03.121Z,4.63
2022-11-20T13:35:33.989Z,3.85
2022-11-20T13:38:07.907Z,4.47
2022-11-20T13:40:38.919Z,5.03
2022-11-20T13:43:17.117Z,4.73
2022-11-20T13:45:57.797Z,4.67
2022-11-20T13:48:32.379Z,4.93
2022-11-20T13:51:14.204Z,5.23
2022-11-20T13:54:18.997Z,4.57
2022-11-20T13:56:59.987Z,5.27
2022-11-20T13:59:45.174Z,4.33
2022-11-20T14:02:16.314Z,5.13
2022-11-20T14:04:50.350Z,5.00
2022-11-20T14:07:21.483Z,4.63
2022-11-20T14:09:54.363Z,5.13
2022-11-20T14:12:25.417Z,5.00
2022-11-20T14:14:56.429Z,5.70
2022-11-20T14:17:27.492Z,5.60
2022-11-20T14:20:00.844Z,5.73
2022-11-20T14:22:29.688Z,5.30
2022-11-20T14:25:07.766Z,5.50
2022-11-20T14:27:38.549Z,6.10
2022-11-20T14:30:08.815Z,6.67
2022-11-20T14:32:38.303Z,6.97
2022-11-20T14:35:15.846Z,6.70
2022-11-20T14:37:44.224Z,6.97
2022-11-20T14:40:27.058Z,6.83
2022-11-20T14:42:57.058Z,7.10
2022-11-20T14:45:25.927Z,8.07
2022-11-20T14:47:55.473Z,7.57
2022-11-20T14:50:26.984Z,7.03
2022-11-20T14:52:57.557Z,6.40
2022-11-20T14:55:31.989Z,6.10
2022-11-20T14:58:02.551Z,6.33
2022-11-20T15:00:32.206Z,5.93
2022-11-20T15:03:01.501Z,6.83
2022-11-20T15:05:50.368Z,6.23
2022-11-20T15:08:19.908Z,5.70
2022-11-20T15:10:50.422Z,5.23
2022-11-20T15:13:26.922Z,6.00
2022-11-20T15:15:57.160Z,4.60
2022-11-20T15:18:29.313Z,5.07
2022-11-20T15:21:00.929Z,4.80
2022-11-20T15:23:30.298Z,4.80
2022-11-20T15:25:59.688Z,4.60
2022-11-20T15:28:33.533Z,4.87
2022-11-20T15:31:03.316Z,4.63
2022-11-20T15:33:32.138Z,4.47
2022-11-20T15:36:02.610Z,4.13
2022-11-20T15:38:31.992Z,4.40
2022-11-20T15:41:01.139Z,4.57
2022-11-20T15:43:29.390Z,3.90
2022-11-20T15:46:01.374Z,3.77
2022-11-20T15:48:32.449Z,3.73
2022-11-20T15:51:06.216Z,3.67
2022-11-20T15:53:35.135Z,3.30
2022-11-20T15:56:04.637Z,3.50
2022-11-20T15:58:33.172Z,5.07
2022-11-20T16:01:01.405Z,3.30
2022-11-20T16:03:29.966Z,3.70
2022-11-20T16:05:58.554Z,3.37
2022-11-20T16:08:28.475Z,3.50
2022-11-20T16:10:56.697Z,4.07
2022-11-20T16:13:42.472Z,4.07
2022-11-20T16:16:20.260Z,3.63
2022-11-20T16:18:49.087Z,3.70
2022-11-20T16:21:17.774Z,3.90
2022-11-20T16:23:47.307Z,4.07
2022-11-20T16:26:17.846Z,4.57
2022-11-20T16:28:46.519Z,3.63
2022-11-20T16:31:16.658Z,4.47
2022-11-20T16:33:45.141Z,4.23
2022-11-20T16:36:15.086Z,4.00
2022-11-20T16:38:44.279Z,4.30
2022-11-20T16:41:15.321Z,4.37
2022-11-20T16:43:48.008Z,4.90
2022-11-20T16:46:16.443Z,5.20
2022-11-20T16:48:44.700Z,4.77
2022-11-20T16:51:14.312Z,4.90
2022-11-20T16:53:42.871Z,4.80
2022-11-20T16:56:16.029Z,5.10
2022-11-20T16:58:45.417Z,4.97
2022-11-20T17:01:15.964Z,4.73
2022-11-20T17:03:46.301Z,4.50
2022-11-20T17:06:16.611Z,5.13
2022-11-20T17:08:45.787Z,4.83
2022-11-20T17:11:17.008Z,5.23
2022-11-20T17:13:45.872Z,4.57
2022-11-20T17:16:17.426Z,5.27
2022-11-20T17:18:46.148Z,5.07
2022-11-20T17:21:15.138Z,5.00
2022-11-20T17:23:44.824Z,5.40
2022-11-20T17:26:17.627Z,4.93
2022-11-20T17:28:46.376Z,6.83
2022-11-20T17:31:16.345Z,6.90
2022-11-20T17:33:46.978Z,7.03
2022-11-20T17:36:17.351Z,6.67
2022-11-20T17:38:46.729Z,7.40
2022-11-20T17:41:18.036Z,7.03
2022-11-20T17:43:47.002Z,6.93
2022-11-20T17:46:16.713Z,5.57
2022-11-20T17:48:45.973Z,5.27
2022-11-20T17:51:16.652Z,5.47
2022-11-20T17:53:47.369Z,4.97
2022-11-20T17:56:34.962Z,5.70
2022-11-20T17:59:06.510Z,5.30
2022-11-20T18:01:35.935Z,5.40
2022-11-20T18:04:05.178Z,5.67
2022-11-20T18:06:34.277Z,5.67
2022-11-20T18:09:04.820Z,5.17
2022-11-20T18:11:36.727Z,5.40
2022-11-20T18:14:25.452Z,6.00
2022-11-20T18:16:56.236Z,5.60
2022-11-20T18:19:29.984Z,6.10
2022-11-20T18:22:01.707Z,6.17
2022-11-20T18:24:30.331Z,7.50
2022-11-20T18:27:00.408Z,8.70
2022-11-20T18:29:31.152Z,6.90
2022-11-20T18:32:01.205Z,6.93
2022-11-20T18:34:30.139Z,6.70
2022-11-20T18:36:58.465Z,6.30
2022-11-20T18:39:26.797Z,7.20
2022-11-20T18:42:12.410Z,8.20
2022-11-20T18:44:55.006Z,9.90
2022-11-20T18:47:25.326Z,10.37
2022-11-20T18:49:57.203Z,11.57
2022-11-20T18:52:27.205Z,13.10
2022-11-20T18:54:56.458Z,11.13
2022-11-20T18:57:27.031Z,11.53
2022-11-20T19:00:02.180Z,10.40
2022-11-20T19:02:42.218Z,9.67
2022-11-20T19:05:13.685Z,10.63
2022-11-20T19:07:44.883Z,11.10
2022-11-20T19:10:18.711Z,9.83
2022-11-20T19:12:51.223Z,10.20
2022-11-20T19:15:36.034Z,11.90
2022-11-20T19:18:06.580Z,9.97
2022-11-20T19:20:38.827Z,9.13
2022-11-20T19:23:09.183Z,9.13
2022-11-20T19:25:42.123Z,9.80
2022-11-20T19:28:11.815Z,8.90
2022-11-20T19:30:45.307Z,9.67
2022-11-20T19:33:17.675Z,9.60
2022-11-20T19:35:52.615Z,9.77
2022-11-20T19:38:26.887Z,9.90
2022-11-20T19:41:00.107Z,9.83
2022-11-20T19:43:32.847Z,11.10
2022-11-20T19:46:06.488Z,11.87
2022-11-20T19:48:39.574Z,11.33
2022-11-20T19:51:14.546Z,13.37
2022-11-20T19:53:55.135Z,12.10
2022-11-20T19:56:30.157Z,12.60
2022-11-20T19:59:03.259Z,11.50
2022-11-20T20:01:38.222Z,12.93
2022-11-20T20:04:14.022Z,12.73
2022-11-20T20:06:47.046Z,13.60
2022-11-20T20:09:19.740Z,14.50
2022-11-20T20:11:54.207Z,12.60
2022-11-20T20:14:27.084Z,12.97
2022-11-20T20:16:58.781Z,11.70
2022-11-20T20:19:32.402Z,12.07
2022-11-20T20:22:04.460Z,11.53
2022-11-20T20:24:37.362Z,13.17
2022-11-20T20:27:09.126Z,11.20
2022-11-20T20:29:41.175Z,10.93
2022-11-20T20:32:33.014Z,12.00
2022-11-20T20:35:06.420Z,11.63
2022-11-20T20:37:38.846Z,12.97
2022-11-20T20:40:14.869Z,12.67
2022-11-20T20:42:46.304Z,13.47
2022-11-20T20:45:20.489Z,12.60
2022-11-20T20:47:56.569Z,12.70
2022-11-20T20:50:39.267Z,11.90
2022-11-20T20:53:10.456Z,12.07
2022-11-20T20:55:43.085Z,12.90
2022-11-20T20:58:16.328Z,11.67
2022-11-20T21:00:51.739Z,12.57
2022-11-20T21:03:30.607Z,13.13
2022-11-20T21:06:04.629Z,12.13
2022-11-20T21:08:39.188Z,12.43
2022-11-20T21:11:16.049Z,12.77
2022-11-20T21:13:53.339Z,14.07
2022-11-20T21:16:26.523Z,13.03
2022-11-20T21:18:58.439Z,12.90
2022-11-20T21:21:47.469Z,13.00
2022-11-20T21:24:22.143Z,14.80
2022-11-20T21:26:56.761Z,11.23
2022-11-20T21:29:31.686Z,9.20
2022-11-20T21:32:04.191Z,8.90
2022-11-20T21:34:39.987Z,9.40
2022-11-20T21:37:14.739Z,8.80
2022-11-20T21:39:56.088Z,9.13
2022-11-20T21:42:38.453Z,9.47
2022-11-20T21:45:14.474Z,9.20
2022-11-20T21:47:45.832Z,9.37
2022-11-20T21:50:19.735Z,9.53
2022-11-20T21:52:55.816Z,10.30
2022-11-20T21:55:29.608Z,9.80
2022-11-20T21:58:00.722Z,10.13
2022-11-20T22:00:30.310Z,8.63
2022-11-20T22:03:03.380Z,9.23
2022-11-20T22:05:39.903Z,9.73
2022-11-20T22:08:13.969Z,10.03
2022-11-20T22:10:48.032Z,11.17
2022-11-20T22:13:37.488Z,10.47
2022-11-20T22:16:13.574Z,10.23
2022-11-20T22:18:49.399Z,10.73
2022-11-20T22:21:28.599Z,10.63
2022-11-20T22:24:01.954Z,10.27
2022-11-20T22:26:40.679Z,11.40
2022-11-20T22:29:19.398Z,11.07
2022-11-20T22:31:53.331Z,10.07
2022-11-20T22:34:27.463Z,11.40
2022-11-20T22:37:05.226Z,11.23
2022-11-20T22:39:35.237Z,10.83
2022-11-20T22:42:12.130Z,10.47
2022-11-20T22:44:45.941Z,11.03
2022-11-20T22:47:18.095Z,11.40
2022-11-20T22:49:47.594Z,11.77
2022-11-20T22:52:26.483Z,12.67
2022-11-20T22:54:58.469Z,12.00
2022-11-20T22:57:27.568Z,12.17
2022-11-20T22:59:58.954Z,13.13
2022-11-20T23:02:32.260Z,13.30
2022-11-20T23:05:06.712Z,13.33
2022-11-20T23:07:41.139Z,14.00
2022-11-20T23:10:14.460Z,13.47
2022-11-20T23:12:48.152Z,15.10
2022-11-20T23:15:21.979Z,14.30
2022-11-20T23:17:54.922Z,13.60
2022-11-20T23:20:23.817Z,13.93
2022-11-20T23:23:06.287Z,14.50
2022-11-20T23:25:38.136Z,14.80
2022-11-20T23:28:17.142Z,14.00
2022-11-20T23:30:53.307Z,14.40
2022-11-20T23:33:27.985Z,14.47
2022-11-20T23:36:03.935Z,14.30
2022-11-20T23:38:39.986Z,14.33
2022-11-20T23:41:20.527Z,12.80
2022-11-20T23:43:54.000Z,13.03
2022-11-20T23:46:27.001Z,12.73
2022-11-20T23:49:02.264Z,11.73
2022-11-20T23:51:36.950Z,12.27
2022-11-20T23:54:14.507Z,12.67
2022-11-20T23:56:45.779Z,11.80
2022-11-20T23:59:17.780Z,11.73
